createdAt,value
2018-02-06T00:01:16.381Z,99.90
2018-02-06T00:03:42.899Z,99.90
2018-02-06T00:06:09.113Z,99.90
2018-02-06T00:08:36.071Z,99.90
2018-02-06T00:11:02.312Z,99.90
2018-02-06T00:13:28.555Z,99.90
2018-02-06T00:15:54.887Z,99.90
2018-02-06T00:18:21.212Z,99.90
2018-02-06T00:20:47.648Z,99.90
2018-02-06T00:23:14.205Z,99.90
2018-02-06T00:25:40.384Z,99.90
2018-02-06T00:28:07.114Z,99.90
2018-02-06T00:30:33.334Z,99.90
2018-02-06T00:32:59.879Z,99.90
2018-02-06T00:35:26.060Z,99.90
2018-02-06T00:37:52.243Z,99.90
2018-02-06T00:40:19.186Z,99.90
2018-02-06T00:42:46.123Z,99.90
2018-02-06T00:45:12.319Z,99.90
2018-02-06T00:47:38.469Z,99.90
2018-02-06T00:50:04.637Z,99.90
2018-02-06T00:52:30.814Z,99.90
2018-02-06T00:54:56.958Z,99.90
2018-02-06T00:57:23.144Z,99.90
2018-02-06T00:59:49.308Z,99.90
2018-02-06T01:02:15.491Z,99.90
2018-02-06T01:04:41.659Z,99.90
2018-02-06T01:07:07.845Z,99.90
2018-02-06T01:09:34.006Z,99.90
2018-02-06T01:12:00.236Z,99.90
2018-02-06T01:14:26.411Z,99.90
2018-02-06T01:16:52.555Z,99.90
2018-02-06T01:19:18.740Z,99.90
2018-02-06T01:21:51.987Z,99.90
2018-02-06T01:24:18.262Z,99.90
2018-02-06T01:26:44.447Z,99.90
2018-02-06T01:29:10.696Z,99.90
2018-02-06T01:31:37.604Z,99.90
2018-02-06T01:34:03.854Z,99.90
2018-02-06T01:36:30.792Z,99.90
2018-02-06T01:38:56.972Z,99.90
2018-02-06T01:41:23.189Z,99.90
2018-02-06T01:43:49.379Z,99.90
2018-02-06T01:46:15.588Z,99.90
2018-02-06T01:48:41.788Z,99.90
2018-02-06T01:51:07.978Z,99.90
2018-02-06T01:53:34.887Z,99.90
2018-02-06T01:56:01.078Z,99.90
2018-02-06T01:58:27.708Z,99.90
2018-02-06T02:00:53.933Z,99.90
2018-02-06T02:03:20.099Z,99.90
2018-02-06T02:05:46.362Z,99.90
2018-02-06T02:08:13.279Z,99.90
2018-02-06T02:10:39.472Z,99.90
2018-02-06T02:13:05.661Z,99.90
2018-02-06T02:15:32.641Z,99.90
2018-02-06T02:17:58.799Z,99.90
2018-02-06T02:20:25.001Z,99.90
2018-02-06T02:22:51.167Z,99.90
2018-02-06T02:25:17.410Z,99.90
2018-02-06T02:27:44.299Z,99.90
2018-02-06T02:30:10.535Z,99.90
2018-02-06T02:32:36.747Z,99.90
2018-02-06T02:35:02.939Z,99.90
2018-02-06T02:37:29.891Z,99.90
2018-02-06T02:39:56.145Z,99.90
2018-02-06T04:39:22.907Z,99.90
2018-02-06T04:41:49.094Z,99.90
2018-02-06T04:44:15.293Z,99.90
2018-02-06T04:46:42.215Z,99.90
2018-02-06T04:49:08.434Z,99.90
2018-02-06T04:51:34.597Z,99.90
2018-02-06T04:54:00.751Z,99.90
2018-02-06T04:56:27.658Z,99.90
2018-02-06T04:58:53.882Z,99.90
2018-02-06T05:01:20.051Z,99.90
2018-02-06T05:03:47.039Z,99.90
2018-02-06T05:06:13.245Z,99.90
2018-02-06T05:08:39.414Z,99.90
2018-02-06T05:11:05.606Z,99.90
2018-02-06T05:13:31.831Z,99.90
2018-02-06T05:15:58.023Z,99.90
2018-02-06T05:18:24.910Z,99.90
2018-02-06T05:20:51.160Z,99.90
2018-02-06T05:23:17.328Z,99.90
2018-02-06T05:25:43.488Z,99.90
2018-02-06T05:28:09.647Z,99.90
2018-02-06T05:30:35.816Z,99.90
2018-02-06T05:33:02.008Z,99.90
2018-02-06T05:35:28.167Z,99.90
2018-02-06T05:37:54.356Z,99.90
2018-02-06T05:40:20.581Z,99.90
2018-02-06T05:42:46.767Z,99.90
2018-02-06T05:45:12.931Z,99.90
2018-02-06T05:47:39.122Z,99.90
2018-02-06T05:50:05.309Z,99.90
2018-02-06T05:52:31.487Z,99.90
2018-02-06T05:55:04.639Z,99.90
2018-02-06T05:57:30.945Z,99.90
2018-02-06T06:00:04.057Z,99.90
2018-02-06T06:02:30.218Z,99.90
2018-02-06T06:04:56.411Z,99.90
2018-02-06T06:07:22.650Z,99.90
2018-02-06T06:09:48.929Z,99.90
2018-02-06T06:12:15.119Z,99.90
2018-02-06T06:14:41.287Z,99.90
2018-02-06T06:17:07.529Z,99.90
2018-02-06T06:19:34.459Z,99.90
2018-02-06T06:22:00.662Z,99.90
2018-02-06T06:24:26.836Z,99.90
2018-02-06T06:26:53.772Z,99.90
2018-02-06T06:29:20.672Z,99.90
2018-02-06T06:31:46.894Z,99.90
2018-02-06T06:34:13.113Z,99.90
2018-02-06T06:36:39.325Z,99.90
2018-02-06T06:39:05.519Z,99.90
2018-02-06T06:41:32.496Z,99.90
2018-02-06T06:43:58.714Z,99.90
2018-02-06T06:46:24.887Z,99.90
2018-02-06T06:48:51.083Z,99.90
2018-02-06T06:51:17.266Z,99.90
2018-02-06T06:53:44.254Z,99.90
2018-02-06T06:56:10.479Z,99.90
2018-02-06T06:58:37.018Z,99.90
2018-02-06T07:01:03.212Z,99.90
2018-02-06T07:03:30.155Z,99.90
2018-02-06T07:05:57.120Z,99.90
2018-02-06T07:08:23.330Z,99.90
2018-02-06T07:10:49.654Z,99.90
2018-02-06T07:13:16.563Z,99.90
2018-02-06T07:15:43.568Z,99.90
2018-02-06T07:18:09.760Z,99.90
2018-02-06T07:20:36.743Z,99.90
2018-02-06T07:23:02.916Z,99.90
2018-02-06T07:25:29.208Z,99.90
2018-02-06T07:27:55.405Z,99.90
2018-02-06T07:30:21.627Z,99.90
2018-02-06T07:32:48.519Z,99.90
2018-02-06T07:35:14.702Z,99.90
2018-02-06T07:37:40.878Z,99.90
2018-02-06T07:40:07.860Z,99.90
2018-02-06T07:42:34.780Z,99.90
2018-02-06T07:45:00.993Z,99.90
2018-02-06T07:47:27.138Z,99.90
2018-02-06T07:49:54.087Z,99.90
2018-02-06T07:52:21.032Z,99.90
2018-02-06T07:54:48.057Z,99.90
2018-02-06T07:57:14.221Z,99.90
2018-02-06T07:59:40.421Z,99.90
2018-02-06T08:02:06.603Z,99.90
2018-02-06T08:04:32.842Z,99.90
2018-02-06T08:06:58.972Z,99.90
2018-02-06T08:09:25.195Z,99.90
2018-02-06T08:11:51.415Z,99.90
2018-02-06T08:14:19.123Z,99.90
2018-02-06T08:16:46.207Z,99.90
2018-02-06T08:19:12.384Z,99.90
2018-02-06T08:21:39.337Z,99.90
2018-02-06T08:24:05.527Z,99.90
2018-02-06T08:26:31.791Z,99.90
2018-02-06T08:28:57.991Z,99.90
2018-02-06T08:31:24.237Z,99.90
2018-02-06T08:33:50.401Z,99.90
2018-02-06T08:36:16.578Z,99.90
2018-02-06T08:38:42.800Z,99.90
2018-02-06T08:41:09.057Z,99.90
2018-02-06T08:43:35.219Z,99.90
2018-02-06T08:46:01.408Z,99.90
2018-02-06T08:48:27.583Z,99.90
2018-02-06T08:50:53.755Z,99.90
2018-02-06T08:53:19.942Z,99.90
2018-02-06T08:55:46.122Z,99.90
2018-02-06T08:58:13.147Z,99.10
2018-02-06T09:00:39.398Z,99.10
2018-02-06T09:03:05.619Z,98.80
2018-02-06T09:05:31.822Z,97.50
2018-02-06T09:07:58.006Z,97.50
2018-02-06T09:10:24.194Z,97.60
2018-02-06T09:12:50.437Z,97.00
2018-02-06T09:15:17.370Z,97.60
2018-02-06T09:17:44.324Z,97.20
2018-02-06T09:20:11.218Z,96.50
2018-02-06T09:22:37.438Z,96.50
2018-02-06T09:25:03.824Z,96.70
2018-02-06T09:27:30.057Z,96.80
2018-02-06T09:29:56.288Z,96.90
2018-02-06T09:32:22.459Z,96.40
2018-02-06T09:34:48.650Z,96.10
2018-02-06T09:37:14.942Z,96.70
2018-02-06T09:39:41.254Z,96.40
2018-02-06T09:42:07.430Z,96.20
2018-02-06T09:44:33.843Z,96.20
2018-02-06T09:47:00.139Z,96.00
2018-02-06T09:49:26.395Z,96.80
2018-02-06T09:51:52.582Z,96.20
2018-02-06T09:54:20.312Z,96.20
2018-02-06T09:56:48.325Z,96.20
2018-02-06T09:59:14.646Z,96.10
2018-02-06T10:01:40.881Z,95.80
2018-02-06T10:04:07.089Z,96.60
2018-02-06T10:06:33.276Z,95.30
2018-02-06T10:08:59.441Z,95.00
2018-02-06T10:11:25.628Z,95.10
2018-02-06T10:13:52.564Z,95.00
2018-02-06T10:16:19.521Z,95.40
2018-02-06T10:18:45.706Z,95.40
2018-02-06T10:21:11.919Z,94.60
2018-02-06T10:23:38.072Z,94.40
2018-02-06T10:26:04.274Z,94.10
2018-02-06T10:28:30.513Z,94.60
2018-02-06T10:30:56.710Z,94.30
2018-02-06T10:33:22.907Z,94.40
2018-02-06T10:35:49.234Z,95.40
2018-02-06T10:38:15.467Z,93.30
2018-02-06T10:40:42.413Z,85.50
2018-02-06T10:43:08.629Z,85.40
2018-02-06T10:45:35.582Z,87.30
2018-02-06T10:48:02.550Z,85.60
2018-02-06T10:50:28.718Z,85.60
2018-02-06T10:52:54.952Z,81.00
2018-02-06T10:55:21.830Z,76.70
2018-02-06T10:57:48.058Z,74.30
2018-02-06T11:00:17.274Z,73.30
2018-02-06T11:02:43.482Z,71.20
2018-02-06T11:05:09.670Z,70.50
2018-02-06T11:07:35.936Z,67.70
2018-02-06T11:10:02.135Z,70.90
2018-02-06T11:12:29.179Z,70.60
2018-02-06T11:14:55.407Z,70.40
2018-02-06T11:17:22.444Z,69.30
2018-02-06T11:19:48.643Z,69.20
2018-02-06T11:22:14.871Z,67.30
2018-02-06T11:24:41.103Z,67.80
2018-02-06T11:27:07.329Z,64.50
2018-02-06T11:29:33.520Z,69.00
2018-02-06T11:31:59.722Z,72.70
2018-02-06T11:34:26.087Z,74.00
2018-02-06T11:36:52.308Z,76.80
2018-02-06T11:39:18.757Z,78.20
2018-02-06T11:41:44.998Z,81.00
2018-02-06T11:44:11.310Z,82.50
2018-02-06T11:46:38.361Z,84.90
2018-02-06T11:49:04.663Z,84.90
2018-02-06T11:51:30.830Z,87.40
2018-02-06T11:53:57.018Z,87.50
2018-02-06T11:56:23.179Z,87.50
2018-02-06T11:58:49.408Z,87.20
2018-02-06T12:01:17.829Z,87.60
2018-02-06T12:03:44.860Z,88.10
2018-02-06T12:06:11.091Z,88.10
2018-02-06T12:08:39.445Z,87.60
2018-02-06T12:11:05.612Z,86.90
2018-02-06T12:13:32.601Z,87.40
2018-02-06T12:15:58.810Z,87.40
2018-02-06T12:18:24.994Z,86.70
2018-02-06T12:20:51.272Z,87.20
2018-02-06T12:23:17.484Z,86.40
2018-02-06T12:25:44.401Z,86.40
2018-02-06T12:28:11.161Z,84.60
2018-02-06T12:30:37.335Z,88.50
2018-02-06T12:33:03.898Z,84.50
2018-02-06T12:35:30.159Z,86.10
2018-02-06T12:37:56.393Z,85.40
2018-02-06T12:40:22.623Z,86.60
2018-02-06T12:42:48.802Z,85.50
2018-02-06T12:45:15.742Z,88.00
2018-02-06T12:47:42.666Z,88.10
2018-02-06T12:50:08.981Z,88.10
2018-02-06T12:52:35.353Z,87.60
2018-02-06T12:55:02.231Z,86.20
2018-02-06T12:57:28.375Z,84.10
2018-02-06T12:59:54.554Z,83.60
2018-02-06T13:02:21.470Z,85.00
2018-02-06T13:04:47.766Z,85.00
2018-02-06T13:07:14.060Z,84.30
2018-02-06T13:09:40.970Z,81.80
2018-02-06T13:12:10.794Z,81.60
2018-02-06T13:14:37.178Z,81.60
2018-02-06T13:17:04.368Z,81.50
2018-02-06T13:19:30.668Z,80.90
2018-02-06T13:21:56.823Z,81.50
2018-02-06T13:24:23.807Z,81.30
2018-02-06T13:26:50.546Z,81.10
2018-02-06T13:29:16.898Z,81.60
2018-02-06T13:31:43.157Z,80.70
2018-02-06T13:34:09.354Z,82.20
2018-02-06T13:36:35.552Z,81.30
2018-02-06T13:39:02.460Z,83.30
2018-02-06T13:41:28.663Z,83.10
2018-02-06T13:43:54.796Z,82.90
2018-02-06T13:46:20.954Z,80.70
2018-02-06T13:48:48.410Z,84.50
2018-02-06T13:51:14.629Z,84.20
2018-02-06T13:53:40.859Z,82.90
2018-02-06T13:56:07.042Z,82.20
2018-02-06T13:58:33.419Z,82.30
2018-02-06T14:01:00.434Z,82.20
2018-02-06T14:03:27.412Z,82.10
2018-02-06T14:05:54.347Z,82.00
2018-02-06T14:08:20.900Z,81.80
2018-02-06T14:10:47.254Z,80.90
2018-02-06T14:13:13.830Z,80.50
2018-02-06T14:15:40.789Z,78.60
2018-02-06T14:18:06.998Z,78.60
2018-02-06T14:20:33.207Z,80.70
2018-02-06T14:22:59.923Z,81.00
2018-02-06T14:25:26.131Z,78.70
2018-02-06T14:27:53.148Z,78.10
2018-02-06T14:30:19.328Z,78.10
2018-02-06T14:32:45.705Z,79.40
2018-02-06T14:35:11.858Z,78.10
2018-02-06T14:37:38.095Z,80.00
2018-02-06T14:40:04.336Z,80.00
2018-02-06T14:42:30.540Z,80.70
2018-02-06T14:44:57.484Z,80.40
2018-02-06T14:47:23.759Z,80.20
2018-02-06T14:49:49.965Z,79.60
2018-02-06T14:52:16.150Z,79.80
2018-02-06T14:54:43.228Z,79.80
2018-02-06T14:57:09.502Z,79.80
2018-02-06T14:59:35.838Z,80.30
2018-02-06T15:02:03.642Z,81.10
2018-02-06T15:04:29.913Z,81.20
2018-02-06T15:06:56.274Z,81.70
2018-02-06T15:09:22.843Z,80.70
2018-02-06T15:11:49.090Z,81.10
2018-02-06T15:14:15.528Z,81.20
2018-02-06T15:16:41.823Z,82.30
2018-02-06T15:19:08.734Z,83.70
2018-02-06T15:21:34.952Z,83.60
2018-02-06T15:24:01.110Z,84.50
2018-02-06T15:26:27.273Z,82.00
2018-02-06T15:28:53.450Z,82.40
2018-02-06T15:31:20.379Z,84.00
2018-02-06T15:33:46.606Z,83.90
2018-02-06T15:36:12.757Z,83.30
2018-02-06T15:38:38.996Z,81.80
2018-02-06T15:41:05.173Z,86.60
2018-02-06T15:43:31.392Z,85.20
2018-02-06T15:45:57.835Z,83.80
2018-02-06T15:48:24.418Z,82.40
2018-02-06T15:50:50.649Z,84.20
2018-02-06T15:53:16.884Z,83.20
2018-02-06T15:55:43.067Z,84.50
2018-02-06T15:58:09.516Z,89.10
2018-02-06T16:00:41.783Z,87.80
2018-02-06T16:03:08.139Z,86.60
2018-02-06T16:05:34.547Z,85.40
2018-02-06T16:08:00.702Z,83.70
2018-02-06T16:10:26.920Z,82.40
2018-02-06T16:12:53.191Z,82.90
2018-02-06T16:15:19.643Z,85.40
2018-02-06T16:17:46.748Z,83.40
2018-02-06T16:20:12.930Z,83.40
2018-02-06T16:22:39.062Z,85.40
2018-02-06T16:25:06.007Z,87.20
2018-02-06T16:27:32.212Z,87.20
2018-02-06T16:29:58.406Z,85.80
2018-02-06T16:32:24.702Z,90.00
2018-02-06T16:34:51.337Z,87.70
2018-02-06T16:37:17.771Z,85.90
2018-02-06T16:39:45.208Z,90.10
2018-02-06T16:42:12.031Z,90.00
2018-02-06T16:44:38.430Z,89.20
2018-02-06T16:47:11.371Z,90.10
2018-02-06T16:49:37.970Z,87.20
2018-02-06T16:52:05.059Z,86.30
2018-02-06T16:54:31.966Z,88.30
2018-02-06T16:56:59.690Z,87.80
2018-02-06T16:59:26.180Z,88.40
2018-02-06T17:01:52.428Z,87.40
2018-02-06T17:04:18.586Z,86.00
2018-02-06T17:06:44.762Z,86.30
2018-02-06T17:09:11.728Z,85.00
2018-02-06T17:11:37.956Z,84.80
2018-02-06T17:14:04.203Z,86.00
2018-02-06T17:16:30.383Z,85.60
2018-02-06T17:18:59.348Z,85.20
2018-02-06T17:21:25.884Z,86.20
2018-02-06T17:23:52.206Z,89.70
2018-02-06T17:26:18.404Z,90.20
2018-02-06T17:28:44.745Z,90.50
2018-02-06T17:31:10.905Z,91.20
2018-02-06T17:33:37.233Z,91.70
2018-02-06T17:36:03.423Z,91.60
2018-02-06T17:38:29.687Z,92.20
2018-02-06T17:40:57.177Z,92.50
2018-02-06T17:43:24.115Z,92.40
2018-02-06T17:45:50.995Z,92.30
2018-02-06T17:48:17.214Z,92.30
2018-02-06T17:50:43.414Z,92.70
2018-02-06T17:53:10.387Z,93.00
2018-02-06T17:55:36.598Z,93.00
2018-02-06T17:58:02.814Z,93.60
2018-02-06T18:00:29.896Z,93.20
2018-02-06T18:02:56.302Z,93.20
2018-02-06T18:05:23.528Z,92.80
2018-02-06T18:07:50.673Z,92.90
2018-02-06T18:10:17.000Z,92.80
2018-02-06T18:12:43.298Z,93.30
2018-02-06T18:15:09.544Z,93.00
2018-02-06T18:17:36.505Z,93.40
2018-02-06T18:20:02.760Z,93.30
2018-02-06T18:22:29.764Z,93.40
2018-02-06T18:24:55.970Z,93.40
2018-02-06T18:27:22.950Z,93.10
2018-02-06T18:29:49.095Z,93.10
2018-02-06T18:32:15.382Z,92.80
2018-02-06T18:34:41.631Z,93.00
2018-02-06T18:37:07.934Z,92.80
2018-02-06T18:39:34.603Z,92.70
2018-02-06T18:42:00.926Z,93.00
2018-02-06T18:44:27.205Z,93.10
2018-02-06T18:46:53.407Z,92.40
2018-02-06T18:49:19.761Z,92.40
2018-02-06T18:51:46.456Z,92.50
2018-02-06T18:54:12.794Z,92.30
2018-02-06T18:56:39.230Z,92.80
2018-02-06T18:59:08.095Z,92.50
2018-02-06T19:01:35.702Z,92.50
2018-02-06T19:04:01.923Z,92.90
2018-02-06T19:06:29.200Z,92.80
2018-02-06T19:08:55.571Z,92.40
2018-02-06T19:11:22.209Z,93.20
2018-02-06T19:13:48.602Z,92.80
2018-02-06T19:16:14.774Z,93.00
2018-02-06T19:18:41.868Z,92.80
2018-02-06T19:21:08.119Z,92.80
2018-02-06T19:23:34.350Z,92.90
2018-02-06T19:26:07.429Z,93.10
2018-02-06T19:28:33.642Z,92.40
2018-02-06T19:31:00.615Z,93.10
2018-02-06T19:33:26.871Z,93.00
2018-02-06T19:35:53.926Z,92.20
2018-02-06T19:38:20.130Z,92.10
2018-02-06T19:40:47.307Z,92.60
2018-02-06T19:43:14.564Z,93.20
2018-02-06T19:45:40.869Z,92.80
2018-02-06T19:48:08.058Z,92.40
2018-02-06T19:50:34.262Z,92.40
2018-02-06T19:53:00.472Z,92.10
2018-02-06T19:55:27.452Z,92.00
2018-02-06T19:57:53.607Z,92.00
2018-02-06T20:00:19.772Z,92.10
2018-02-06T20:02:46.690Z,92.20
2018-02-06T20:05:12.846Z,92.20
2018-02-06T20:07:39.773Z,92.50
2018-02-06T20:10:06.690Z,92.20
2018-02-06T20:12:32.872Z,92.20
2018-02-06T20:14:59.111Z,92.60
2018-02-06T20:17:25.350Z,91.90
2018-02-06T20:19:51.502Z,91.80
2018-02-06T20:22:17.962Z,91.40
2018-02-06T20:24:44.951Z,90.20
2018-02-06T20:27:11.452Z,90.20
2018-02-06T20:29:38.353Z,89.90
2018-02-06T20:32:04.518Z,89.90
2018-02-06T20:34:31.711Z,90.50
2018-02-06T20:36:58.661Z,88.60
2018-02-06T20:39:24.924Z,88.60
2018-02-06T20:41:51.891Z,87.40
2018-02-06T20:44:18.289Z,87.30
2018-02-06T20:46:44.487Z,86.30
2018-02-06T20:49:10.709Z,87.00
2018-02-06T20:51:36.876Z,87.60
2018-02-06T20:54:03.054Z,86.20
2018-02-06T20:56:29.195Z,85.90
2018-02-06T20:58:55.388Z,87.60
2018-02-06T21:01:21.999Z,87.70
2018-02-06T21:03:48.915Z,87.00
2018-02-06T21:06:15.151Z,87.00
2018-02-06T21:08:42.076Z,89.20
2018-02-06T21:11:08.393Z,89.20
2018-02-06T21:13:34.565Z,89.40
2018-02-06T21:16:00.722Z,88.30
2018-02-06T21:18:26.870Z,88.70
2018-02-06T21:20:54.061Z,89.40
2018-02-06T21:23:20.428Z,88.50
2018-02-06T21:25:46.607Z,89.00
2018-02-06T21:28:12.755Z,89.30
2018-02-06T21:30:39.821Z,90.60
2018-02-06T21:33:06.160Z,91.00
2018-02-06T21:35:34.786Z,90.50
2018-02-06T21:38:01.532Z,91.10
2018-02-06T21:40:28.531Z,91.00
2018-02-06T21:42:54.807Z,91.00
2018-02-06T21:45:21.788Z,90.60
2018-02-06T21:47:48.071Z,90.60
2018-02-06T21:50:14.451Z,90.40
2018-02-06T21:52:40.796Z,91.20
2018-02-06T21:55:07.317Z,90.70
2018-02-06T21:57:33.674Z,90.50
2018-02-06T21:59:59.831Z,90.30
2018-02-06T22:02:26.047Z,91.10
2018-02-06T22:04:52.204Z,90.40
2018-02-06T22:07:19.086Z,91.20
2018-02-06T22:09:45.244Z,91.20
2018-02-06T22:12:11.409Z,90.50
2018-02-06T22:14:37.584Z,90.70
2018-02-06T22:17:03.748Z,90.40
2018-02-06T22:19:30.742Z,90.80
2018-02-06T22:21:56.946Z,90.70
2018-02-06T22:24:23.127Z,90.70
2018-02-06T22:26:49.286Z,90.80
2018-02-06T22:29:15.783Z,90.80
2018-02-06T22:31:41.937Z,90.70
2018-02-06T22:34:08.116Z,91.10
2018-02-06T22:36:35.411Z,91.50
2018-02-06T22:39:03.908Z,91.70
2018-02-06T22:41:37.590Z,91.70
2018-02-06T22:44:03.937Z,92.10
2018-02-06T22:46:30.113Z,91.70
2018-02-06T22:48:56.290Z,91.90
2018-02-06T22:51:23.311Z,92.10
2018-02-06T22:53:49.523Z,92.10
2018-02-06T22:56:15.711Z,92.20
2018-02-06T22:58:41.853Z,91.90
2018-02-06T23:01:08.047Z,91.80
2018-02-06T23:03:35.959Z,92.00
2018-02-06T23:06:02.231Z,91.80
2018-02-06T23:08:29.139Z,91.90
2018-02-06T23:10:55.718Z,92.00
2018-02-06T23:13:21.862Z,92.00
2018-02-06T23:15:48.040Z,92.00
2018-02-06T23:18:15.012Z,92.40
2018-02-06T23:20:41.462Z,92.40
2018-02-06T23:23:08.120Z,92.50
2018-02-06T23:25:34.313Z,93.10
2018-02-06T23:28:00.532Z,93.00
2018-02-06T23:30:26.727Z,92.70
2018-02-06T23:32:52.923Z,92.80
2018-02-06T23:35:19.117Z,93.10
2018-02-06T23:37:45.284Z,92.90
2018-02-06T23:40:11.458Z,92.80
2018-02-06T23:42:38.506Z,92.60
2018-02-06T23:45:04.655Z,92.60
2018-02-06T23:47:30.803Z,92.80
2018-02-06T23:49:57.035Z,93.40
2018-02-06T23:52:23.406Z,93.40
2018-02-06T23:54:50.348Z,93.40
2018-02-06T23:57:17.226Z,93.90
2018-02-06T23:59:43.438Z,93.80
